Time;durP1;ratioP1;P1;durP2;ratioP2;P2;SDS_P1;SDS_P2;PMS_P1;PMS_P2;Temp;Humidity;BMP_temperature;BMP_pressure;BME280_temperature;BME280_humidity;BME280_pressure;Samples;Min_cycle;Max_cycle;Signal;HPM_P1;HPM_P2
2023/04/29 00:00:23;;;;;;;17.13;14.27;;;11.30;99.90;;;-141.84;89.73;19779.28;4994197;28;20187;-68
2023/04/29 00:02:51;;;;;;;16.77;14.97;;;11.30;99.90;;;-141.84;90.69;19748.81;5023529;28;20593;-68
2023/04/29 00:05:20;;;;;;;18.73;16.10;;;11.30;99.90;;;-141.84;91.05;19769.13;5033908;28;20206;-66
2023/04/29 00:07:48;;;;;;;18.93;16.93;;;11.30;99.90;;;-141.84;91.35;19756.94;5020513;28;20203;-66
2023/04/29 00:10:21;;;;;;;22.90;19.57;;;11.30;99.90;;;-141.84;91.92;19781.31;5028481;28;20262;-66
2023/04/29 00:12:50;;;;;;;22.53;19.73;;;11.30;99.90;;;-141.84;91.96;19754.91;5032745;28;20191;-68
2023/04/29 00:15:18;;;;;;;22.23;18.50;;;11.30;99.90;;;-141.84;92.33;19744.75;5033389;28;20225;-67
2023/04/29 00:17:48;;;;;;;19.13;16.33;;;11.30;99.90;;;-141.84;92.99;19752.88;5031461;28;20689;-68
2023/04/29 00:20:16;;;;;;;16.80;15.10;;;11.20;99.90;;;-141.84;93.24;19783.34;5032392;28;20292;-66
2023/04/29 00:22:45;;;;;;;16.30;14.57;;;11.30;99.90;;;-141.84;93.28;19777.25;4998083;28;20658;-68
2023/04/29 00:25:13;;;;;;;19.17;16.47;;;11.30;99.90;;;-141.84;93.20;19756.94;5032366;28;20216;-68
2023/04/29 00:27:43;;;;;;;16.97;14.77;;;11.30;99.90;;;-141.84;93.33;19748.81;5033076;28;20332;-67
2023/04/29 00:30:11;;;;;;;17.80;14.73;;;11.30;99.90;;;-141.84;94.49;19689.88;5033056;28;20198;-70
2023/04/29 00:32:39;;;;;;;17.17;13.97;;;11.30;99.90;;;-141.84;94.41;19712.22;5032874;28;20213;-66
2023/04/29 00:35:10;;;;;;;16.53;14.83;;;11.30;99.90;;;-141.84;95.00;19732.53;5023714;28;20256;-68
2023/04/29 00:37:38;;;;;;;18.37;15.77;;;11.30;99.90;;;-141.84;95.63;19681.75;5016840;28;20194;-67
2023/04/29 00:40:08;;;;;;;15.50;13.90;;;11.30;99.90;;;-141.84;96.01;19704.09;5035106;28;20256;-67
2023/04/29 00:42:37;;;;;;;15.80;13.43;;;11.20;99.90;;;-141.84;96.45;19651.25;5021785;28;20210;-67
2023/04/29 00:45:06;;;;;;;16.97;15.17;;;11.20;99.90;;;-141.84;97.02;19630.94;5018099;28;20704;-68
2023/04/29 00:47:35;;;;;;;17.13;14.33;;;11.10;99.90;;;-141.84;97.45;19635.00;5015205;28;20213;-67
2023/04/29 00:50:09;;;;;;;16.77;14.53;;;11.20;99.90;;;-141.84;97.80;19641.09;5013891;28;20207;-68
2023/04/29 00:52:40;;;;;;;16.40;14.67;;;11.20;99.90;;;-141.84;98.00;19622.81;5016498;28;20195;-68
2023/04/29 00:55:09;;;;;;;15.50;13.40;;;11.30;99.90;;;-141.84;98.19;19618.75;5016504;28;20237;-67
2023/04/29 00:57:38;;;;;;;15.97;13.90;;;11.20;99.90;;;-141.84;98.48;19586.22;5029361;28;20232;-67
2023/04/29 01:00:08;;;;;;;15.40;13.13;;;11.20;99.90;;;-141.84;98.95;19572.00;5030801;28;20270;-67
2023/04/29 01:02:37;;;;;;;17.77;13.40;;;11.20;99.90;;;-141.84;99.46;19590.28;5025781;28;20264;-68
2023/04/29 01:05:06;;;;;;;16.47;14.40;;;11.20;99.90;;;-141.84;99.75;19576.06;5036885;28;20689;-67
2023/04/29 01:07:56;;;;;;;16.77;14.60;;;11.30;99.90;;;-141.84;99.75;19561.84;5035673;28;20206;-67
2023/04/29 01:10:29;;;;;;;15.80;12.77;;;11.30;99.90;;;-141.84;99.73;19543.53;5021312;28;20562;-68
2023/04/29 01:13:13;;;;;;;15.70;13.10;;;11.30;99.90;;;-141.84;99.90;19531.34;5036633;28;20186;-67
2023/04/29 01:15:54;;;;;;;16.27;13.10;;;11.30;99.90;;;-141.84;100.00;19478.50;5035981;28;20285;-68
2023/04/29 01:18:32;;;;;;;15.70;13.10;;;11.30;99.90;;;-141.84;100.00;19529.31;5034438;28;20547;-67
2023/04/29 01:21:01;;;;;;;16.47;14.23;;;11.20;99.90;;;-141.84;100.00;19511.03;5036403;28;20205;-68
2023/04/29 01:23:31;;;;;;;17.67;13.97;;;11.20;99.90;;;-141.84;100.00;19460.22;5035696;28;20694;-68
2023/04/29 01:25:59;;;;;;;17.07;14.57;;;11.20;99.90;;;-141.84;100.00;19490.72;5035804;28;20198;-68
2023/04/29 01:28:46;;;;;;;18.23;14.13;;;11.10;99.90;;;-141.84;100.00;19474.44;5034140;28;20198;-68
2023/04/29 01:31:23;;;;;;;17.60;14.90;;;11.10;99.90;;;-141.84;100.00;19480.53;5033591;28;20182;-66
2023/04/29 01:34:05;;;;;;;18.10;14.90;;;11.10;99.90;;;-141.84;100.00;19478.50;5033780;28;20293;-67
2023/04/29 01:36:47;;;;;;;17.30;14.60;;;11.20;99.90;;;-141.84;100.00;19500.88;5033411;28;20186;-67
2023/04/29 01:39:32;;;;;;;16.90;15.10;;;11.10;99.90;;;-141.84;100.00;19435.84;4994876;28;20205;-67
2023/04/29 01:42:20;;;;;;;17.70;15.30;;;11.10;99.90;;;-141.84;100.00;19492.75;5034493;28;20837;-66
2023/04/29 01:44:50;;;;;;;20.07;16.03;;;11.10;99.90;;;-141.84;100.00;19496.81;5031836;28;20650;-67
2023/04/29 01:47:21;;;;;;;20.03;16.10;;;11.10;99.90;;;-141.84;100.00;19466.31;5034046;28;20198;-67
2023/04/29 01:49:50;;;;;;;17.77;15.30;;;11.20;99.90;;;-141.84;100.00;19472.41;5033319;28;20193;-68
2023/04/29 01:52:19;;;;;;;17.97;15.60;;;11.10;99.90;;;-141.84;100.00;19482.56;5033144;28;20268;-66
2023/04/29 01:54:48;;;;;;;20.13;16.53;;;11.20;99.90;;;-141.84;100.00;19468.34;5034677;28;20202;-68
2023/04/29 01:57:16;;;;;;;19.90;16.87;;;11.20;99.90;;;-141.84;100.00;19460.22;5033866;28;20205;-67
2023/04/29 01:59:44;;;;;;;20.60;16.80;;;11.20;99.90;;;-141.84;100.00;19456.16;5032416;28;20237;-67
2023/04/29 02:02:14;;;;;;;19.70;16.53;;;11.20;99.90;;;-141.84;100.00;19433.81;5021259;28;20214;-66
2023/04/29 02:04:43;;;;;;;20.33;16.87;;;11.20;99.90;;;-141.84;100.00;19431.78;5014597;28;20213;-68
2023/04/29 02:07:11;;;;;;;18.70;16.33;;;11.20;99.90;;;-141.84;100.00;19450.06;5034425;28;20386;-67
2023/04/29 02:09:39;;;;;;;19.33;15.83;;;11.20;99.90;;;-141.84;100.00;19454.13;5034632;28;20206;-67
2023/04/29 02:12:09;;;;;;;21.57;16.50;;;11.20;99.90;;;-141.84;100.00;19421.63;5025909;28;20207;-67
2023/04/29 02:14:37;;;;;;;20.87;17.13;;;11.20;99.90;;;-141.84;100.00;19435.84;5014989;28;20210;-67
2023/04/29 02:17:05;;;;;;;20.83;16.73;;;11.20;99.90;;;-141.84;100.00;19421.63;5014112;28;20674;-67
2023/04/29 02:19:34;;;;;;;20.40;17.97;;;11.30;99.90;;;-141.84;100.00;19413.47;5013489;28;20221;-67
2023/04/29 02:22:03;;;;;;;20.40;16.87;;;11.20;99.90;;;-141.84;100.00;19405.34;5012646;28;20234;-68
2023/04/29 02:24:31;;;;;;;20.20;17.00;;;11.30;99.90;;;-141.84;100.00;19407.38;5032704;28;20233;-69
2023/04/29 02:26:59;;;;;;;21.13;16.90;;;11.30;99.90;;;-141.84;100.00;19417.56;4995255;28;1094602;-67
2023/04/29 02:29:29;;;;;;;23.63;18.17;;;11.30;99.90;;;-141.84;100.00;19356.59;5033382;28;20202;-66
2023/04/29 02:31:58;;;;;;;20.33;15.93;;;11.30;99.90;;;-141.84;100.00;19380.97;5033718;28;20209;-67
2023/04/29 02:34:26;;;;;;;19.10;16.23;;;11.20;99.90;;;-141.84;100.00;19366.75;5033425;28;20583;-66
2023/04/29 02:36:54;;;;;;;22.23;17.70;;;11.30;99.90;;;-141.84;100.00;19332.19;5015898;28;20663;-68
2023/04/29 02:39:23;;;;;;;20.30;17.07;;;11.20;99.90;;;-141.84;100.00;19344.41;5026398;28;20202;-67
2023/04/29 02:41:55;;;;;;;19.17;16.57;;;11.20;99.90;;;-141.84;100.00;19348.47;5032619;28;20231;-66
2023/04/29 02:44:24;;;;;;;20.60;17.83;;;11.30;99.90;;;-141.84;100.00;19336.25;5033153;28;20206;-67
2023/04/29 02:46:53;;;;;;;21.43;17.67;;;11.20;99.90;;;-141.84;100.00;19366.75;5032486;28;20213;-68
2023/04/29 02:49:21;;;;;;;23.57;18.80;;;11.20;99.90;;;-141.84;100.00;19348.47;5032872;28;20217;-67
2023/04/29 02:51:49;;;;;;;21.87;16.93;;;11.20;99.90;;;-141.84;100.00;19360.66;5033605;28;20210;-68
2023/04/29 02:54:17;;;;;;;21.77;17.13;;;11.30;99.90;;;-141.84;100.00;19340.31;5033599;28;20616;-67
2023/04/29 02:56:46;;;;;;;21.60;17.37;;;11.20;99.90;;;-141.84;100.00;19330.16;5032279;28;20210;-67
2023/04/29 02:59:14;;;;;;;20.90;17.17;;;11.20;99.90;;;-141.84;100.00;19334.22;5032962;28;20213;-67
2023/04/29 03:01:42;;;;;;;21.17;17.13;;;11.20;99.90;;;-141.84;100.00;19334.22;5014934;28;20711;-68
2023/04/29 03:04:12;;;;;;;21.00;16.77;;;11.20;99.90;;;-141.84;100.00;19336.25;5023359;28;20226;-67
2023/04/29 03:06:40;;;;;;;20.23;16.87;;;11.20;99.90;;;-141.84;100.00;19287.50;5033733;28;20296;-66
2023/04/29 03:09:09;;;;;;;21.13;18.10;;;11.10;99.90;;;-141.84;100.00;19293.59;5033778;28;20194;-68
2023/04/29 03:11:37;;;;;;;21.67;17.83;;;11.20;99.90;;;-141.84;100.00;19330.16;5034136;28;20209;-68
2023/04/29 03:14:05;;;;;;;20.47;17.50;;;11.20;99.90;;;-141.84;100.00;19326.09;5032460;28;20210;-68
2023/04/29 03:16:34;;;;;;;20.83;16.37;;;11.20;99.90;;;-141.84;100.00;19293.59;5033036;28;20678;-67
2023/04/29 03:19:02;;;;;;;21.20;17.53;;;11.20;99.90;;;-141.84;100.00;19289.53;5032518;28;20728;-66
2023/04/29 03:21:32;;;;;;;22.87;18.67;;;11.10;99.90;;;-141.84;100.00;19291.56;5033069;28;20202;-67
2023/04/29 03:24:00;;;;;;;20.27;16.93;;;11.10;99.90;;;-141.84;100.00;19297.66;5034295;28;20241;-68
2023/04/29 03:26:29;;;;;;;20.40;17.77;;;11.10;99.90;;;-141.84;100.00;19293.59;5032659;28;20231;-67
2023/04/29 03:28:57;;;;;;;20.37;18.00;;;11.10;99.90;;;-141.84;100.00;19285.47;5033311;28;20659;-68
2023/04/29 03:31:26;;;;;;;23.60;19.73;;;11.10;99.90;;;-141.84;100.00;19301.72;5032428;28;20202;-67
2023/04/29 03:33:54;;;;;;;24.60;19.57;;;11.10;99.90;;;-141.84;100.00;19257.00;5032694;28;20290;-67
2023/04/29 03:36:22;;;;;;;25.47;19.73;;;11.10;99.90;;;-141.84;100.00;19305.78;5032602;28;20265;-67
2023/04/29 03:38:52;;;;;;;26.50;20.30;;;11.10;99.90;;;-141.84;100.00;19289.53;5033530;28;20202;-67
2023/04/29 03:41:22;;;;;;;24.43;20.07;;;11.10;99.90;;;-141.84;100.00;19259.03;5032925;28;20209;-68
2023/04/29 03:43:51;;;;;;;25.93;20.47;;;11.10;99.90;;;-141.84;100.00;19250.91;5032589;28;20190;-66
2023/04/29 03:46:21;;;;;;;24.77;19.77;;;11.10;99.90;;;-141.84;100.00;19313.91;5032807;28;20237;-68
2023/04/29 03:48:50;;;;;;;29.63;21.60;;;11.10;99.90;;;-141.84;100.00;19330.16;4997996;28;20256;-68
2023/04/29 03:51:19;;;;;;;28.37;22.00;;;11.10;99.90;;;-141.84;100.00;19305.78;5032416;28;20229;-67
2023/04/29 03:53:47;;;;;;;32.57;21.87;;;11.10;99.90;;;-141.84;100.00;19322.03;5033656;28;20545;-67
2023/04/29 03:56:17;;;;;;;26.07;21.20;;;11.20;99.90;;;-141.84;100.00;19303.75;5032742;28;20678;-68
2023/04/29 03:58:45;;;;;;;27.07;20.87;;;11.10;99.90;;;-141.84;100.00;19293.59;4993862;28;20207;-67
2023/04/29 04:01:14;;;;;;;26.67;20.77;;;11.20;99.90;;;-141.84;100.00;19336.25;5023586;28;20205;-66
2023/04/29 04:03:42;;;;;;;25.60;21.03;;;11.20;99.90;;;-141.84;100.00;19330.16;5029184;28;20202;-54
2023/04/29 04:06:11;;;;;;;25.50;20.13;;;11.20;99.90;;;-141.84;99.70;19336.25;5031739;28;20649;-53
2023/04/29 04:08:40;;;;;;;26.27;20.07;;;11.30;99.90;;;-141.84;99.82;19317.97;5030370;28;20202;-51
2023/04/29 04:11:08;;;;;;;26.63;20.20;;;11.20;99.90;;;-141.84;99.52;19322.03;5024144;28;20205;-51
2023/04/29 04:13:39;;;;;;;26.90;20.50;;;11.20;99.90;;;-141.84;99.65;19344.41;5031953;28;20241;-55
2023/04/29 04:16:07;;;;;;;29.93;21.90;;;11.20;99.90;;;-141.84;99.87;19340.31;5032352;28;20198;-55
2023/04/29 04:18:35;;;;;;;25.13;20.53;;;11.20;99.90;;;-141.84;100.00;19309.84;5031007;28;20256;-52
2023/04/29 04:21:06;;;;;;;26.20;20.03;;;11.30;99.90;;;-141.84;100.00;19330.16;5026420;28;20207;-52
2023/04/29 04:23:34;;;;;;;24.37;18.87;;;11.30;99.90;;;-141.84;100.00;19322.03;5013274;28;20195;-54
2023/04/29 04:26:03;;;;;;;24.63;19.77;;;11.30;99.90;;;-141.84;100.00;19346.44;5014315;28;20229;-52
2023/04/29 04:28:31;;;;;;;25.67;19.23;;;11.30;99.90;;;-141.84;100.00;19334.22;5032442;28;20190;-54
2023/04/29 04:31:01;;;;;;;27.63;19.93;;;11.40;99.90;;;-141.84;100.00;19336.25;5031991;28;20209;-56
2023/04/29 04:33:29;;;;;;;25.63;19.50;;;11.40;99.90;;;-141.84;100.00;19330.16;5030523;28;20662;-54
2023/04/29 04:35:57;;;;;;;25.93;20.13;;;11.40;99.90;;;-141.84;100.00;19332.19;5031864;28;20201;-54
2023/04/29 04:38:26;;;;;;;27.77;20.10;;;11.40;99.90;;;-141.84;100.00;19317.97;5032831;28;20213;-56
2023/04/29 04:40:54;;;;;;;29.27;21.37;;;11.50;99.90;;;-141.84;100.00;19332.19;5031767;28;20208;-52
2023/04/29 04:43:22;;;;;;;27.50;20.90;;;11.50;99.90;;;-141.84;99.93;19334.22;5012336;28;20203;-54
2023/04/29 04:45:51;;;;;;;28.07;20.63;;;11.50;99.90;;;-141.84;99.91;19330.16;5028661;28;20237;-54
2023/04/29 04:48:22;;;;;;;28.37;19.80;;;11.50;99.90;;;-141.84;100.00;19317.97;5031606;28;20288;-55
2023/04/29 04:50:50;;;;;;;26.83;20.70;;;11.50;99.90;;;-141.84;100.00;19330.16;5032128;28;20210;-57
2023/04/29 04:53:18;;;;;;;27.30;20.47;;;11.60;99.90;;;-141.84;99.97;19350.50;5034011;28;20209;-55
2023/04/29 04:55:46;;;;;;;26.37;19.60;;;11.60;99.90;;;-141.84;99.46;19350.50;5031069;28;20194;-54
2023/04/29 04:58:14;;;;;;;24.40;19.23;;;11.70;99.90;;;-141.84;98.41;19413.47;5014136;28;20211;-54
2023/04/29 05:00:45;;;;;;;23.73;18.40;;;11.70;99.90;;;-141.84;97.36;19374.88;5011247;28;20203;-53
2023/04/29 05:03:13;;;;;;;21.60;17.73;;;11.80;99.90;;;-141.84;96.40;19383.00;5027252;28;20202;-54
2023/04/29 05:05:44;;;;;;;22.10;16.33;;;11.80;99.90;;;-141.84;96.26;19403.31;5031370;28;20649;-54
2023/04/29 05:08:13;;;;;;;21.80;16.63;;;11.80;99.90;;;-141.84;95.89;19395.19;5031651;28;20209;-52
2023/04/29 05:10:41;;;;;;;20.87;16.73;;;11.70;99.90;;;-141.84;95.34;19462.25;5032955;28;20210;-54
2023/04/29 05:13:11;;;;;;;20.67;16.20;;;11.80;99.90;;;-141.84;94.35;19448.03;5032423;28;20249;-54
2023/04/29 05:15:39;;;;;;;20.10;15.03;;;11.80;99.90;;;-141.84;93.66;19441.94;5031716;28;20601;-55
2023/04/29 05:18:08;;;;;;;18.07;14.73;;;11.90;99.90;;;-141.84;93.16;19443.97;5031273;28;20280;-54
2023/04/29 05:20:36;;;;;;;17.90;14.40;;;11.90;99.90;;;-141.84;93.56;19435.84;5033736;28;20202;-55
2023/04/29 05:23:06;;;;;;;19.97;14.17;;;11.90;99.90;;;-141.84;93.59;19464.28;5035571;28;20210;-53
2023/04/29 05:25:34;;;;;;;17.53;13.47;;;12.00;99.90;;;-141.84;93.26;19462.25;5035446;28;20218;-54
2023/04/29 05:28:03;;;;;;;17.00;13.40;;;12.00;99.90;;;-141.84;93.06;19466.31;5020487;28;20253;-56
2023/04/29 05:30:31;;;;;;;13.30;10.57;;;12.10;99.90;;;-141.84;92.14;19474.44;5019698;28;20546;-54
2023/04/29 05:32:59;;;;;;;12.70;10.33;;;12.10;99.90;;;-141.84;91.94;19464.28;5035821;28;20213;-59
2023/04/29 05:35:28;;;;;;;11.13;9.30;;;12.10;99.90;;;-141.84;92.29;19474.44;5035781;28;20205;-55
2023/04/29 05:37:56;;;;;;;11.73;9.33;;;12.20;99.90;;;-141.84;92.65;19472.41;5027833;28;20211;-56
2023/04/29 05:40:26;;;;;;;13.77;9.93;;;12.20;99.90;;;-141.84;91.58;19498.84;5034480;28;20712;-54
2023/04/29 05:42:54;;;;;;;12.23;9.70;;;12.30;99.90;;;-141.84;90.73;19498.84;5034763;28;20198;-52
2023/04/29 05:45:22;;;;;;;10.90;9.37;;;12.40;99.90;;;-141.84;90.62;19535.41;5016696;28;20305;-56
2023/04/29 05:47:51;;;;;;;12.00;9.97;;;12.40;99.90;;;-141.84;90.29;19509.00;5034697;28;20674;-54
2023/04/29 05:50:21;;;;;;;12.13;9.38;;;12.40;99.90;;;-141.84;90.24;19555.75;5035384;28;20209;-55
2023/04/29 05:52:50;;;;;;;13.20;9.95;;;12.50;99.90;;;-141.84;89.16;19561.84;5034644;28;20225;-56
2023/04/29 05:55:19;;;;;;;13.97;10.43;;;12.60;99.90;;;-141.84;88.72;19572.00;5035297;28;20194;-52
2023/04/29 05:57:48;;;;;;;14.10;11.30;;;12.60;99.90;;;-141.84;88.33;19565.91;5023127;28;20207;-53
2023/04/29 06:00:21;;;;;;;13.37;10.57;;;12.70;99.90;;;-141.84;87.07;19622.81;5016472;28;20199;-54
2023/04/29 06:02:49;;;;;;;14.40;11.47;;;12.60;99.90;;;-141.84;86.35;19618.75;5027212;28;20209;-54
2023/04/29 06:05:26;;;;;;;14.97;11.80;;;12.70;99.90;;;-141.84;85.99;19643.13;5028351;28;20211;-53
2023/04/29 06:07:55;;;;;;;12.97;11.00;;;12.80;99.90;;;-141.84;86.07;19657.34;5022945;28;20218;-53
2023/04/29 06:10:24;;;;;;;11.27;9.47;;;12.70;99.90;;;-141.84;83.74;19693.94;5033475;28;20190;-55
2023/04/29 06:12:54;;;;;;;11.77;9.37;;;12.90;99.90;;;-141.84;83.48;19702.06;5033943;28;20198;-53
2023/04/29 06:15:22;;;;;;;11.53;9.77;;;12.80;99.90;;;-141.84;83.36;19700.03;5034348;28;20198;-55
2023/04/29 06:17:50;;;;;;;11.30;9.50;;;12.80;99.90;;;-141.84;83.89;19700.03;5035686;28;20212;-54
2023/04/29 06:20:19;;;;;;;10.73;9.63;;;12.80;99.90;;;-141.84;83.73;19708.16;5034027;28;20658;-56
2023/04/29 06:22:48;;;;;;;10.70;9.10;;;12.90;99.90;;;-141.84;81.62;19689.88;5023612;28;20210;-56
2023/04/29 06:25:16;;;;;;;11.50;9.80;;;12.90;99.90;;;-141.84;81.85;19740.69;5015711;28;20658;-54
2023/04/29 06:27:44;;;;;;;10.18;9.05;;;13.00;99.90;;;-141.84;81.95;19732.53;5014194;28;20246;-53
2023/04/29 06:30:14;;;;;;;10.83;9.53;;;13.10;99.90;;;-141.84;82.39;19740.69;5015785;28;20207;-54
2023/04/29 06:32:42;;;;;;;10.50;9.32;;;13.10;99.90;;;-141.84;81.99;19738.66;5023118;28;20206;-55
2023/04/29 06:35:10;;;;;;;10.93;9.27;;;13.10;99.90;;;-141.84;81.50;19748.81;5018931;28;20662;-53
2023/04/29 06:37:39;;;;;;;9.93;8.83;;;13.10;99.90;;;-141.84;81.37;19781.31;5015628;28;20222;-56
2023/04/29 06:40:08;;;;;;;10.45;9.02;;;13.10;99.90;;;-141.84;80.78;19789.44;5031881;28;20579;-56
2023/04/29 06:42:38;;;;;;;10.47;9.27;;;13.00;99.90;;;-141.84;79.69;19771.16;5034150;28;20210;-54
2023/04/29 06:45:07;;;;;;;10.18;8.93;;;13.00;99.90;;;-141.84;80.03;19771.16;5033956;28;20198;-55
2023/04/29 06:47:37;;;;;;;9.77;8.70;;;13.00;99.90;;;-141.84;79.19;19807.75;5034003;28;20218;-55
2023/04/29 06:50:06;;;;;;;10.88;8.70;;;13.00;99.90;;;-141.84;78.86;19830.09;5033717;28;20229;-67
2023/04/29 06:52:35;;;;;;;9.50;8.20;;;13.00;99.90;;;-141.84;77.34;19828.06;5032655;28;20210;-67
2023/04/29 06:55:04;;;;;;;11.32;8.38;;;13.10;99.90;;;-141.84;76.99;19862.63;5033460;28;20213;-67
2023/04/29 06:57:32;;;;;;;10.10;8.05;;;13.00;99.90;;;-141.84;75.98;19856.53;5033587;28;20194;-68
2023/04/29 07:00:00;;;;;;;10.18;8.65;;;13.10;99.90;;;-141.84;75.82;19848.38;5034304;28;20222;-68
2023/04/29 07:02:28;;;;;;;9.87;8.47;;;13.10;99.90;;;-141.84;75.47;19864.66;5033234;28;20202;-68
2023/04/29 07:04:58;;;;;;;9.80;8.17;;;13.10;99.90;;;-141.84;76.07;19854.50;5030356;28;20674;-67
2023/04/29 07:07:27;;;;;;;10.05;8.27;;;13.10;99.90;;;-141.84;75.94;19866.69;5031914;28;20257;-66
2023/04/29 07:09:55;;;;;;;9.63;7.77;;;13.10;99.90;;;-141.84;75.20;19860.59;5034189;28;20212;-67
2023/04/29 07:12:23;;;;;;;8.10;7.13;;;13.10;99.90;;;-141.84;75.10;19887.00;5033673;28;20206;-68
2023/04/29 07:14:52;;;;;;;10.07;7.77;;;13.10;99.90;;;-141.84;74.84;19899.19;5034453;28;20202;-68
2023/04/29 07:17:20;;;;;;;7.80;6.83;;;13.20;99.90;;;-141.84;74.45;19913.44;5034097;28;20607;-68
2023/04/29 07:19:48;;;;;;;8.23;7.28;;;13.20;99.90;;;-141.84;73.31;19943.91;5031813;28;20198;-66
2023/04/29 07:22:19;;;;;;;7.97;6.77;;;13.30;99.90;;;-141.84;72.52;19974.41;5031863;28;20717;-65
2023/04/29 07:24:47;;;;;;;9.27;7.13;;;13.40;99.90;;;-141.84;73.34;19935.78;5034530;28;20217;-64
2023/04/29 07:27:16;;;;;;;9.77;7.35;;;13.40;99.90;;;-141.84;72.43;19972.38;5036518;28;20234;-54
2023/04/29 07:29:48;;;;;;;7.83;6.50;;;13.50;99.90;;;-141.84;72.29;19972.38;5017153;28;20210;-56
2023/04/29 07:32:21;;;;;;;9.18;6.93;;;13.50;99.90;;;-141.84;72.67;19958.13;5022990;28;20207;-55
2023/04/29 07:34:51;;;;;;;8.80;7.00;;;13.50;99.90;;;-141.84;73.23;19958.13;5018508;28;20225;-54
2023/04/29 07:37:23;;;;;;;7.83;7.03;;;13.40;99.90;;;-141.84;73.72;19933.75;5037128;28;20186;-55
2023/04/29 07:39:51;;;;;;;8.18;6.93;;;13.30;99.90;;;-141.84;73.84;19923.59;5036208;28;20208;-55
2023/04/29 07:42:22;;;;;;;9.70;7.17;;;13.30;99.90;;;-141.84;74.28;19909.34;5036399;28;20206;-54
2023/04/29 07:44:50;;;;;;;8.32;7.03;;;13.20;99.90;;;-141.84;74.50;19903.25;5036528;28;20186;-54
2023/04/29 07:47:21;;;;;;;11.00;8.13;;;13.20;99.90;;;-141.84;74.60;19927.66;5036111;28;20230;-55
2023/04/29 07:49:50;;;;;;;9.10;7.03;;;13.20;99.90;;;-141.84;74.76;19968.31;5013559;28;20202;-50
2023/04/29 07:52:18;;;;;;;8.97;7.77;;;13.40;99.90;;;-141.84;73.04;19972.38;5031691;28;20202;-57
2023/04/29 07:54:47;;;;;;;9.88;8.32;;;13.50;99.90;;;-141.84;70.62;20057.72;5031279;28;20611;-53
2023/04/29 07:57:16;;;;;;;8.45;7.15;;;13.70;99.90;;;-141.84;71.03;20057.72;5031241;28;20234;-54
2023/04/29 07:59:44;;;;;;;10.23;8.80;;;13.70;99.90;;;-141.84;70.44;20033.34;5032488;28;20209;-55
2023/04/29 08:02:15;;;;;;;9.43;8.43;;;13.80;99.90;;;-141.84;70.38;20017.09;5031239;28;20213;-52
2023/04/29 08:04:43;;;;;;;11.57;9.55;;;13.70;99.90;;;-141.84;71.48;20008.94;5032330;28;20182;-56
2023/04/29 08:07:13;;;;;;;11.60;9.40;;;13.60;99.90;;;-141.84;71.35;19988.63;5023920;28;20226;-54
2023/04/29 08:09:41;;;;;;;13.47;10.60;;;13.60;99.90;;;-141.84;71.32;19984.56;5011780;28;20210;-55
2023/04/29 08:12:10;;;;;;;12.97;10.37;;;13.40;99.90;;;-141.84;71.54;19996.75;5022677;28;20575;-57
2023/04/29 08:14:38;;;;;;;12.40;10.60;;;13.40;99.90;;;-141.84;71.32;19996.75;5031258;28;20209;-51
2023/04/29 08:17:07;;;;;;;13.37;11.33;;;13.40;99.90;;;-141.84;70.95;19978.47;5031168;28;20201;-52
2023/04/29 08:19:37;;;;;;;13.47;12.07;;;13.50;99.90;;;-141.84;71.06;19996.75;5031594;28;20398;-54
2023/04/29 08:22:10;;;;;;;13.17;11.70;;;13.40;99.90;;;-141.84;71.69;19984.56;5033492;28;20237;-54
2023/04/29 08:24:38;;;;;;;16.03;13.10;;;13.40;99.90;;;-141.84;72.81;19921.56;5031552;28;20301;-54
2023/04/29 08:27:06;;;;;;;14.37;12.10;;;13.30;99.90;;;-141.84;72.49;19978.47;5030495;28;20234;-54
2023/04/29 08:29:36;;;;;;;14.20;12.70;;;13.30;99.90;;;-141.84;71.22;20035.38;5030230;28;20567;-53
2023/04/29 08:32:05;;;;;;;14.03;12.43;;;13.30;99.90;;;-141.84;71.05;20004.88;5031101;28;20206;-54
2023/04/29 08:34:35;;;;;;;12.65;11.15;;;13.40;99.90;;;-141.84;69.74;20071.97;5015268;28;20268;-52
2023/04/29 08:37:03;;;;;;;12.15;10.85;;;13.60;99.90;;;-141.84;68.71;20126.84;4993053;28;20203;-53
2023/04/29 08:39:32;;;;;;;13.85;11.25;;;13.80;99.90;;;-141.84;67.34;20134.97;5024894;28;20198;-51
2023/04/29 08:42:03;;;;;;;13.15;10.27;;;13.90;99.90;;;-141.84;66.81;20110.56;5031209;28;20202;-51
2023/04/29 08:44:32;;;;;;;10.65;9.52;;;13.90;99.90;;;-141.84;66.43;20165.44;5030841;28;20206;-54
2023/04/29 08:47:02;;;;;;;11.32;9.52;;;14.00;99.90;;;-141.84;65.76;20149.19;5031342;28;20266;-53
2023/04/29 08:49:32;;;;;;;11.05;9.90;;;14.10;99.90;;;-141.84;66.94;20173.59;5031083;28;20193;-52
2023/04/29 08:52:01;;;;;;;11.82;10.32;;;14.00;99.90;;;-141.84;68.29;20092.28;5031290;28;20206;-52
2023/04/29 08:54:31;;;;;;;10.80;9.73;;;13.80;99.90;;;-141.84;69.26;20063.81;5031683;28;20610;-57
2023/04/29 08:57:01;;;;;;;12.97;10.43;;;13.70;99.90;;;-141.84;69.15;20049.59;5034193;28;20206;-52
2023/04/29 08:59:30;;;;;;;15.40;10.15;;;13.60;99.90;;;-141.84;70.16;20023.19;5035082;28;20229;-52
2023/04/29 09:02:00;;;;;;;10.63;9.52;;;13.40;99.90;;;-141.84;69.35;20019.13;5018847;28;20206;-58
2023/04/29 09:04:47;;;;;;;10.50;8.90;;;13.40;99.90;;;-141.84;70.06;19992.69;5034810;28;20216;-58
2023/04/29 09:07:17;;;;;;;10.87;8.67;;;13.20;99.90;;;-141.84;69.23;20000.81;5035542;28;20209;-56
2023/04/29 09:09:46;;;;;;;10.48;9.38;;;13.30;99.90;;;-141.84;69.23;20049.59;5034380;28;20201;-56
2023/04/29 09:12:14;;;;;;;9.97;8.47;;;13.30;99.90;;;-141.84;67.83;20074.00;5034012;28;20194;-54
2023/04/29 09:14:43;;;;;;;9.07;7.90;;;13.50;99.90;;;-141.84;66.82;20118.69;5034965;28;20687;-54
2023/04/29 09:17:11;;;;;;;9.50;8.60;;;13.60;99.90;;;-141.84;66.60;20161.38;5034318;28;20560;-58
2023/04/29 09:19:41;;;;;;;9.63;8.40;;;13.70;99.90;;;-141.84;66.79;20189.84;5034838;28;20206;-55
2023/04/29 09:22:10;;;;;;;9.77;8.77;;;13.80;99.90;;;-141.84;67.42;20104.47;5034655;28;20674;-55
2023/04/29 09:24:38;;;;;;;10.20;9.13;;;13.60;99.90;;;-141.84;67.73;20069.94;5034682;28;20202;-52
2023/04/29 09:27:08;;;;;;;10.13;9.03;;;13.50;99.90;;;-141.84;68.24;20049.59;5033410;28;20230;-53
2023/04/29 09:29:37;;;;;;;10.27;9.25;;;13.50;99.90;;;-141.84;67.89;20102.44;5034653;28;20210;-52
2023/04/29 09:32:20;;;;;;;12.40;9.77;;;13.40;99.90;;;-141.84;68.63;20037.41;5034287;28;20216;-54
2023/04/29 09:34:50;;;;;;;11.45;10.02;;;13.50;99.90;;;-141.84;68.65;20023.19;5034198;28;20206;-54
2023/04/29 09:37:26;;;;;;;11.30;10.10;;;13.40;99.90;;;-141.84;68.13;20078.06;5034502;28;20296;-55
2023/04/29 09:39:55;;;;;;;11.55;9.60;;;13.50;99.90;;;-141.84;66.81;20120.75;5023867;28;20202;-55
2023/04/29 09:42:23;;;;;;;11.20;10.10;;;13.70;99.90;;;-141.84;65.52;20208.13;5014995;28;20198;-54
2023/04/29 09:44:53;;;;;;;10.55;9.45;;;13.90;99.90;;;-141.84;63.59;20258.94;5030275;28;20233;-57
2023/04/29 09:47:31;;;;;;;9.57;8.43;;;14.20;99.90;;;-141.84;65.00;20218.31;5032972;28;20701;-53
2023/04/29 09:50:15;;;;;;;9.68;8.52;;;14.20;99.90;;;-141.84;65.93;20143.09;5029851;28;20202;-56
2023/04/29 09:52:51;;;;;;;9.57;8.57;;;14.00;99.90;;;-141.84;67.45;20149.19;5014867;28;20198;-53
2023/04/29 09:55:23;;;;;;;8.53;7.63;;;13.80;99.90;;;-141.84;67.08;20110.56;5032548;28;20194;-53
2023/04/29 09:57:51;;;;;;;7.85;7.07;;;13.70;99.90;;;-141.84;67.52;20114.63;5033181;28;20661;-55
2023/04/29 10:00:19;;;;;;;8.13;7.33;;;13.50;99.90;;;-141.84;66.85;20069.94;5032497;28;20198;-52
2023/04/29 10:02:49;;;;;;;8.00;7.20;;;13.60;99.90;;;-141.84;67.17;20061.78;5032554;28;20206;-54
2023/04/29 10:05:22;;;;;;;9.40;8.38;;;13.40;99.90;;;-141.84;67.77;20035.38;5030816;28;20199;-53